sensor_id;sensor_type;location;lat;lon;timestamp;P1;durP1;ratioP1;P2;durP2;ratioP2
21432;SDS011;18592;49.708;10.900;2023-10-19T00:01:58;14.25;;;11.05;;
21432;SDS011;18592;49.708;10.900;2023-10-19T00:04:01;14.20;;;10.85;;
21432;SDS011;18592;49.708;10.900;2023-10-19T00:06:02;12.90;;;10.88;;
21432;SDS011;18592;49.708;10.900;2023-10-19T00:08:06;13.60;;;10.98;;
21432;SDS011;18592;49.708;10.900;2023-10-19T00:10:14;14.32;;;10.80;;
21432;SDS011;18592;49.708;10.900;2023-10-19T00:12:17;16.02;;;11.25;;
21432;SDS011;18592;49.708;10.900;2023-10-19T00:14:23;12.90;;;10.18;;
21432;SDS011;18592;49.708;10.900;2023-10-19T00:16:27;12.82;;;10.75;;
21432;SDS011;18592;49.708;10.900;2023-10-19T00:18:31;13.50;;;10.48;;
21432;SDS011;18592;49.708;10.900;2023-10-19T00:20:35;14.23;;;10.15;;
21432;SDS011;18592;49.708;10.900;2023-10-19T00:22:49;13.13;;;10.73;;
21432;SDS011;18592;49.708;10.900;2023-10-19T00:24:50;12.73;;;10.48;;
21432;SDS011;18592;49.708;10.900;2023-10-19T00:26:52;14.55;;;11.15;;
21432;SDS011;18592;49.708;10.900;2023-10-19T00:28:56;14.52;;;11.30;;
21432;SDS011;18592;49.708;10.900;2023-10-19T00:30:58;14.07;;;11.27;;
21432;SDS011;18592;49.708;10.900;2023-10-19T00:33:09;13.60;;;10.45;;
21432;SDS011;18592;49.708;10.900;2023-10-19T00:35:21;13.48;;;10.95;;
21432;SDS011;18592;49.708;10.900;2023-10-19T00:37:28;15.38;;;11.40;;
21432;SDS011;18592;49.708;10.900;2023-10-19T00:39:34;13.75;;;10.90;;
21432;SDS011;18592;49.708;10.900;2023-10-19T00:41:44;14.75;;;11.38;;
21432;SDS011;18592;49.708;10.900;2023-10-19T00:43:46;15.85;;;12.25;;
21432;SDS011;18592;49.708;10.900;2023-10-19T00:45:50;14.40;;;11.43;;
21432;SDS011;18592;49.708;10.900;2023-10-19T00:47:53;15.20;;;11.40;;
21432;SDS011;18592;49.708;10.900;2023-10-19T00:49:56;12.70;;;10.27;;
21432;SDS011;18592;49.708;10.900;2023-10-19T00:52:07;13.55;;;10.70;;
21432;SDS011;18592;49.708;10.900;2023-10-19T00:54:14;13.75;;;10.90;;
21432;SDS011;18592;49.708;10.900;2023-10-19T00:56:28;14.60;;;11.27;;
21432;SDS011;18592;49.708;10.900;2023-10-19T00:58:33;14.02;;;11.27;;
21432;SDS011;18592;49.708;10.900;2023-10-19T01:00:37;13.27;;;10.85;;
21432;SDS011;18592;49.708;10.900;2023-10-19T01:02:44;15.23;;;11.38;;
21432;SDS011;18592;49.708;10.900;2023-10-19T01:04:48;14.23;;;11.20;;
21432;SDS011;18592;49.708;10.900;2023-10-19T01:06:57;12.70;;;10.43;;
21432;SDS011;18592;49.708;10.900;2023-10-19T01:09:06;15.38;;;11.70;;
21432;SDS011;18592;49.708;10.900;2023-10-19T01:11:09;14.60;;;11.52;;
21432;SDS011;18592;49.708;10.900;2023-10-19T01:13:12;16.20;;;11.82;;
21432;SDS011;18592;49.708;10.900;2023-10-19T01:15:18;14.85;;;10.60;;
21432;SDS011;18592;49.708;10.900;2023-10-19T01:17:31;15.73;;;10.85;;
21432;SDS011;18592;49.708;10.900;2023-10-19T01:19:35;14.13;;;10.80;;
21432;SDS011;18592;49.708;10.900;2023-10-19T01:21:36;14.25;;;11.00;;
21432;SDS011;18592;49.708;10.900;2023-10-19T01:23:39;13.02;;;10.07;;
21432;SDS011;18592;49.708;10.900;2023-10-19T01:27:42;12.27;;;10.77;;
21432;SDS011;18592;49.708;10.900;2023-10-19T01:29:44;12.48;;;11.02;;
21432;SDS011;18592;49.708;10.900;2023-10-19T01:31:45;16.48;;;11.52;;
21432;SDS011;18592;49.708;10.900;2023-10-19T01:33:58;14.73;;;10.90;;
21432;SDS011;18592;49.708;10.900;2023-10-19T01:36:07;14.07;;;11.63;;
21432;SDS011;18592;49.708;10.900;2023-10-19T01:38:13;13.95;;;11.32;;
21432;SDS011;18592;49.708;10.900;2023-10-19T01:40:14;13.02;;;11.15;;
21432;SDS011;18592;49.708;10.900;2023-10-19T01:42:21;15.05;;;11.52;;
21432;SDS011;18592;49.708;10.900;2023-10-19T01:44:23;14.10;;;11.63;;
21432;SDS011;18592;49.708;10.900;2023-10-19T01:46:26;13.80;;;11.52;;
21432;SDS011;18592;49.708;10.900;2023-10-19T01:48:35;15.32;;;11.40;;
21432;SDS011;18592;49.708;10.900;2023-10-19T01:50:37;15.40;;;12.13;;
21432;SDS011;18592;49.708;10.900;2023-10-19T01:52:40;13.80;;;11.50;;
21432;SDS011;18592;49.708;10.900;2023-10-19T01:54:42;15.32;;;11.57;;
21432;SDS011;18592;49.708;10.900;2023-10-19T01:56:44;15.02;;;11.88;;
21432;SDS011;18592;49.708;10.900;2023-10-19T01:58:46;15.50;;;11.75;;
21432;SDS011;18592;49.708;10.900;2023-10-19T02:00:48;13.32;;;11.65;;
21432;SDS011;18592;49.708;10.900;2023-10-19T02:02:50;12.82;;;10.55;;
21432;SDS011;18592;49.708;10.900;2023-10-19T02:04:51;15.25;;;11.48;;
21432;SDS011;18592;49.708;10.900;2023-10-19T02:06:54;16.30;;;12.10;;
21432;SDS011;18592;49.708;10.900;2023-10-19T02:11:11;15.27;;;12.05;;
21432;SDS011;18592;49.708;10.900;2023-10-19T02:13:19;15.90;;;12.13;;
21432;SDS011;18592;49.708;10.900;2023-10-19T02:15:21;14.90;;;11.85;;
21432;SDS011;18592;49.708;10.900;2023-10-19T02:17:24;13.80;;;11.27;;
21432;SDS011;18592;49.708;10.900;2023-10-19T02:19:26;14.85;;;11.80;;
21432;SDS011;18592;49.708;10.900;2023-10-19T02:21:30;15.45;;;11.93;;
21432;SDS011;18592;49.708;10.900;2023-10-19T02:23:32;13.90;;;11.35;;
21432;SDS011;18592;49.708;10.900;2023-10-19T02:25:37;14.63;;;11.50;;
21432;SDS011;18592;49.708;10.900;2023-10-19T02:27:38;14.20;;;10.82;;
21432;SDS011;18592;49.708;10.900;2023-10-19T02:29:40;14.23;;;12.13;;
21432;SDS011;18592;49.708;10.900;2023-10-19T02:31:42;13.07;;;11.25;;
21432;SDS011;18592;49.708;10.900;2023-10-19T02:33:44;15.45;;;11.95;;
21432;SDS011;18592;49.708;10.900;2023-10-19T02:35:53;14.32;;;11.77;;
21432;SDS011;18592;49.708;10.900;2023-10-19T02:37:58;14.07;;;11.68;;
21432;SDS011;18592;49.708;10.900;2023-10-19T02:39:59;15.35;;;11.55;;
21432;SDS011;18592;49.708;10.900;2023-10-19T02:42:01;14.98;;;11.45;;
21432;SDS011;18592;49.708;10.900;2023-10-19T02:44:07;16.00;;;11.73;;
21432;SDS011;18592;49.708;10.900;2023-10-19T02:46:15;14.68;;;11.55;;
21432;SDS011;18592;49.708;10.900;2023-10-19T02:48:22;14.82;;;11.90;;
21432;SDS011;18592;49.708;10.900;2023-10-19T02:50:25;14.93;;;12.52;;
21432;SDS011;18592;49.708;10.900;2023-10-19T02:52:27;15.15;;;12.93;;
21432;SDS011;18592;49.708;10.900;2023-10-19T02:54:30;16.27;;;12.05;;
21432;SDS011;18592;49.708;10.900;2023-10-19T02:56:36;13.32;;;11.57;;
21432;SDS011;18592;49.708;10.900;2023-10-19T02:58:40;14.93;;;11.77;;
21432;SDS011;18592;49.708;10.900;2023-10-19T03:00:44;16.95;;;11.70;;
21432;SDS011;18592;49.708;10.900;2023-10-19T03:02:48;16.73;;;12.57;;
21432;SDS011;18592;49.708;10.900;2023-10-19T03:04:50;15.38;;;11.73;;
21432;SDS011;18592;49.708;10.900;2023-10-19T03:06:51;13.82;;;11.60;;
21432;SDS011;18592;49.708;10.900;2023-10-19T03:08:53;15.13;;;11.95;;
21432;SDS011;18592;49.708;10.900;2023-10-19T03:11:06;13.73;;;11.57;;
21432;SDS011;18592;49.708;10.900;2023-10-19T03:13:10;15.48;;;12.82;;
21432;SDS011;18592;49.708;10.900;2023-10-19T03:15:16;15.45;;;11.57;;
21432;SDS011;18592;49.708;10.900;2023-10-19T03:17:18;12.90;;;10.85;;
21432;SDS011;18592;49.708;10.900;2023-10-19T03:19:20;14.65;;;11.70;;
21432;SDS011;18592;49.708;10.900;2023-10-19T03:21:22;12.48;;;11.18;;
21432;SDS011;18592;49.708;10.900;2023-10-19T03:23:33;12.55;;;10.88;;
21432;SDS011;18592;49.708;10.900;2023-10-19T03:25:35;13.50;;;11.38;;
21432;SDS011;18592;49.708;10.900;2023-10-19T03:27:56;14.40;;;12.50;;
21432;SDS011;18592;49.708;10.900;2023-10-19T03:29:57;14.05;;;11.70;;
21432;SDS011;18592;49.708;10.900;2023-10-19T03:32:01;16.80;;;12.63;;
21432;SDS011;18592;49.708;10.900;2023-10-19T03:34:02;14.00;;;11.55;;
21432;SDS011;18592;49.708;10.900;2023-10-19T03:36:07;14.18;;;11.82;;
21432;SDS011;18592;49.708;10.900;2023-10-19T03:38:14;14.40;;;12.30;;
21432;SDS011;18592;49.708;10.900;2023-10-19T03:40:16;14.57;;;11.82;;
21432;SDS011;18592;49.708;10.900;2023-10-19T03:42:26;14.02;;;11.60;;
21432;SDS011;18592;49.708;10.900;2023-10-19T03:44:33;15.93;;;12.32;;
21432;SDS011;18592;49.708;10.900;2023-10-19T03:46:53;14.48;;;11.85;;
21432;SDS011;18592;49.708;10.900;2023-10-19T03:48:55;15.13;;;11.93;;
21432;SDS011;18592;49.708;10.900;2023-10-19T03:51:00;16.90;;;12.55;;
21432;SDS011;18592;49.708;10.900;2023-10-19T03:53:05;16.13;;;11.82;;
21432;SDS011;18592;49.708;10.900;2023-10-19T03:55:08;14.40;;;11.57;;
21432;SDS011;18592;49.708;10.900;2023-10-19T03:57:17;15.50;;;12.57;;
21432;SDS011;18592;49.708;10.900;2023-10-19T03:59:31;14.50;;;12.35;;
21432;SDS011;18592;49.708;10.900;2023-10-19T04:01:35;13.43;;;11.20;;
21432;SDS011;18592;49.708;10.900;2023-10-19T04:03:37;16.15;;;12.68;;
21432;SDS011;18592;49.708;10.900;2023-10-19T04:05:39;14.70;;;11.75;;
21432;SDS011;18592;49.708;10.900;2023-10-19T04:07:42;13.55;;;11.98;;
21432;SDS011;18592;49.708;10.900;2023-10-19T04:09:44;15.07;;;11.95;;
21432;SDS011;18592;49.708;10.900;2023-10-19T04:12:04;14.57;;;12.68;;
21432;SDS011;18592;49.708;10.900;2023-10-19T04:14:06;13.38;;;11.45;;
21432;SDS011;18592;49.708;10.900;2023-10-19T04:16:10;13.43;;;11.93;;
21432;SDS011;18592;49.708;10.900;2023-10-19T04:18:12;13.25;;;11.85;;
21432;SDS011;18592;49.708;10.900;2023-10-19T04:20:17;13.40;;;11.63;;
21432;SDS011;18592;49.708;10.900;2023-10-19T04:22:19;14.77;;;12.13;;
21432;SDS011;18592;49.708;10.900;2023-10-19T04:24:24;14.18;;;11.95;;
21432;SDS011;18592;49.708;10.900;2023-10-19T04:26:26;14.45;;;11.52;;
21432;SDS011;18592;49.708;10.900;2023-10-19T04:28:27;16.40;;;12.95;;
21432;SDS011;18592;49.708;10.900;2023-10-19T04:30:33;14.55;;;12.05;;
21432;SDS011;18592;49.708;10.900;2023-10-19T04:32:34;16.73;;;13.60;;
21432;SDS011;18592;49.708;10.900;2023-10-19T04:34:36;14.27;;;11.15;;
21432;SDS011;18592;49.708;10.900;2023-10-19T04:36:38;14.63;;;11.32;;
21432;SDS011;18592;49.708;10.900;2023-10-19T04:38:41;14.73;;;12.05;;
21432;SDS011;18592;49.708;10.900;2023-10-19T04:40:42;15.60;;;12.25;;
21432;SDS011;18592;49.708;10.900;2023-10-19T04:42:45;13.75;;;12.13;;
21432;SDS011;18592;49.708;10.900;2023-10-19T04:44:47;13.82;;;11.07;;
21432;SDS011;18592;49.708;10.900;2023-10-19T04:46:49;14.57;;;11.77;;
21432;SDS011;18592;49.708;10.900;2023-10-19T04:48:51;14.43;;;12.25;;
21432;SDS011;18592;49.708;10.900;2023-10-19T04:50:53;12.45;;;11.15;;
21432;SDS011;18592;49.708;10.900;2023-10-19T04:52:54;13.75;;;11.63;;
21432;SDS011;18592;49.708;10.900;2023-10-19T04:54:56;13.82;;;11.50;;
21432;SDS011;18592;49.708;10.900;2023-10-19T04:56:58;13.82;;;11.82;;
21432;SDS011;18592;49.708;10.900;2023-10-19T04:59:02;17.38;;;12.77;;
21432;SDS011;18592;49.708;10.900;2023-10-19T05:01:04;13.25;;;11.85;;
21432;SDS011;18592;49.708;10.900;2023-10-19T05:03:06;14.77;;;12.43;;
21432;SDS011;18592;49.708;10.900;2023-10-19T05:05:08;15.63;;;12.32;;
21432;SDS011;18592;49.708;10.900;2023-10-19T05:07:11;13.98;;;12.18;;
21432;SDS011;18592;49.708;10.900;2023-10-19T05:09:18;16.73;;;13.15;;
21432;SDS011;18592;49.708;10.900;2023-10-19T05:11:20;14.00;;;11.85;;
21432;SDS011;18592;49.708;10.900;2023-10-19T05:13:24;15.07;;;12.73;;
21432;SDS011;18592;49.708;10.900;2023-10-19T05:15:27;15.32;;;12.18;;
21432;SDS011;18592;49.708;10.900;2023-10-19T05:17:28;14.30;;;11.93;;
21432;SDS011;18592;49.708;10.900;2023-10-19T05:19:33;13.55;;;11.55;;
21432;SDS011;18592;49.708;10.900;2023-10-19T05:21:38;13.63;;;12.07;;
21432;SDS011;18592;49.708;10.900;2023-10-19T05:23:40;14.52;;;12.25;;
21432;SDS011;18592;49.708;10.900;2023-10-19T05:25:41;14.73;;;12.38;;
21432;SDS011;18592;49.708;10.900;2023-10-19T05:27:43;12.98;;;11.63;;
21432;SDS011;18592;49.708;10.900;2023-10-19T05:29:47;13.18;;;11.52;;
21432;SDS011;18592;49.708;10.900;2023-10-19T05:31:48;15.45;;;12.48;;
21432;SDS011;18592;49.708;10.900;2023-10-19T05:33:54;13.38;;;11.77;;
21432;SDS011;18592;49.708;10.900;2023-10-19T05:35:57;13.75;;;11.98;;
21432;SDS011;18592;49.708;10.900;2023-10-19T05:37:58;14.45;;;12.38;;
21432;SDS011;18592;49.708;10.900;2023-10-19T05:40:00;15.60;;;12.90;;
21432;SDS011;18592;49.708;10.900;2023-10-19T05:42:01;13.70;;;12.20;;
21432;SDS011;18592;49.708;10.900;2023-10-19T05:44:03;15.50;;;11.80;;
21432;SDS011;18592;49.708;10.900;2023-10-19T05:46:05;14.90;;;12.32;;
21432;SDS011;18592;49.708;10.900;2023-10-19T05:48:07;14.10;;;11.88;;
21432;SDS011;18592;49.708;10.900;2023-10-19T05:50:09;14.07;;;11.93;;
21432;SDS011;18592;49.708;10.900;2023-10-19T05:52:15;14.73;;;12.00;;
21432;SDS011;18592;49.708;10.900;2023-10-19T05:54:17;16.60;;;14.07;;
21432;SDS011;18592;49.708;10.900;2023-10-19T05:56:19;15.57;;;12.98;;
21432;SDS011;18592;49.708;10.900;2023-10-19T05:58:22;15.05;;;12.48;;
21432;SDS011;18592;49.708;10.900;2023-10-19T06:00:23;13.45;;;11.80;;
21432;SDS011;18592;49.708;10.900;2023-10-19T06:02:27;14.93;;;12.75;;
21432;SDS011;18592;49.708;10.900;2023-10-19T06:04:33;14.15;;;12.45;;
21432;SDS011;18592;49.708;10.900;2023-10-19T06:06:36;13.95;;;11.57;;
21432;SDS011;18592;49.708;10.900;2023-10-19T06:08:38;13.93;;;12.32;;
21432;SDS011;18592;49.708;10.900;2023-10-19T06:10:41;15.45;;;12.75;;
21432;SDS011;18592;49.708;10.900;2023-10-19T06:12:44;14.98;;;12.73;;
21432;SDS011;18592;49.708;10.900;2023-10-19T06:14:46;13.30;;;11.55;;
21432;SDS011;18592;49.708;10.900;2023-10-19T06:16:48;13.88;;;12.40;;
21432;SDS011;18592;49.708;10.900;2023-10-19T06:18:50;14.43;;;11.95;;
21432;SDS011;18592;49.708;10.900;2023-10-19T06:20:52;14.52;;;12.38;;
21432;SDS011;18592;49.708;10.900;2023-10-19T06:22:56;15.30;;;12.63;;
21432;SDS011;18592;49.708;10.900;2023-10-19T06:25:02;15.88;;;11.90;;
21432;SDS011;18592;49.708;10.900;2023-10-19T06:27:06;13.93;;;12.00;;
21432;SDS011;18592;49.708;10.900;2023-10-19T06:29:10;15.10;;;12.63;;
21432;SDS011;18592;49.708;10.900;2023-10-19T06:31:12;13.90;;;12.05;;
21432;SDS011;18592;49.708;10.900;2023-10-19T06:33:15;14.18;;;12.15;;
21432;SDS011;18592;49.708;10.900;2023-10-19T06:35:22;15.70;;;12.75;;
21432;SDS011;18592;49.708;10.900;2023-10-19T06:37:26;15.80;;;12.55;;
21432;SDS011;18592;49.708;10.900;2023-10-19T06:39:28;13.52;;;12.07;;
21432;SDS011;18592;49.708;10.900;2023-10-19T06:41:29;16.08;;;12.90;;
21432;SDS011;18592;49.708;10.900;2023-10-19T06:43:31;14.10;;;11.77;;
21432;SDS011;18592;49.708;10.900;2023-10-19T06:45:34;14.25;;;12.05;;
21432;SDS011;18592;49.708;10.900;2023-10-19T06:47:36;12.63;;;11.25;;
21432;SDS011;18592;49.708;10.900;2023-10-19T06:49:39;13.82;;;12.35;;
21432;SDS011;18592;49.708;10.900;2023-10-19T06:51:41;14.27;;;12.75;;
21432;SDS011;18592;49.708;10.900;2023-10-19T06:53:43;13.13;;;11.68;;
21432;SDS011;18592;49.708;10.900;2023-10-19T06:55:45;13.60;;;11.68;;
21432;SDS011;18592;49.708;10.900;2023-10-19T06:57:48;13.88;;;11.35;;
21432;SDS011;18592;49.708;10.900;2023-10-19T06:59:51;15.18;;;11.65;;
21432;SDS011;18592;49.708;10.900;2023-10-19T07:01:53;14.65;;;11.70;;
21432;SDS011;18592;49.708;10.900;2023-10-19T07:03:56;15.27;;;11.60;;
21432;SDS011;18592;49.708;10.900;2023-10-19T07:05:58;13.23;;;11.02;;
21432;SDS011;18592;49.708;10.900;2023-10-19T07:07:59;13.93;;;11.65;;
21432;SDS011;18592;49.708;10.900;2023-10-19T07:10:03;13.48;;;11.75;;
21432;SDS011;18592;49.708;10.900;2023-10-19T07:12:07;15.15;;;12.43;;
21432;SDS011;18592;49.708;10.900;2023-10-19T07:14:09;14.40;;;12.30;;
21432;SDS011;18592;49.708;10.900;2023-10-19T07:16:11;12.68;;;11.05;;
21432;SDS011;18592;49.708;10.900;2023-10-19T07:18:13;13.30;;;11.48;;
21432;SDS011;18592;49.708;10.900;2023-10-19T07:20:16;15.25;;;12.13;;
21432;SDS011;18592;49.708;10.900;2023-10-19T07:22:27;12.73;;;11.38;;
21432;SDS011;18592;49.708;10.900;2023-10-19T07:24:29;13.45;;;11.50;;
21432;SDS011;18592;49.708;10.900;2023-10-19T07:26:32;13.02;;;11.60;;
21432;SDS011;18592;49.708;10.900;2023-10-19T07:28:42;14.38;;;11.90;;
21432;SDS011;18592;49.708;10.900;2023-10-19T07:30:45;13.00;;;11.32;;
21432;SDS011;18592;49.708;10.900;2023-10-19T07:32:50;16.05;;;12.00;;
21432;SDS011;18592;49.708;10.900;2023-10-19T07:34:56;14.32;;;12.80;;
21432;SDS011;18592;49.708;10.900;2023-10-19T07:36:58;15.23;;;12.43;;
21432;SDS011;18592;49.708;10.900;2023-10-19T07:39:00;16.23;;;13.73;;
21432;SDS011;18592;49.708;10.900;2023-10-19T07:41:02;15.05;;;12.20;;
21432;SDS011;18592;49.708;10.900;2023-10-19T07:43:04;14.05;;;11.75;;
21432;SDS011;18592;49.708;10.900;2023-10-19T07:45:06;13.02;;;11.63;;
21432;SDS011;18592;49.708;10.900;2023-10-19T07:47:12;15.13;;;12.60;;
21432;SDS011;18592;49.708;10.900;2023-10-19T07:49:14;13.68;;;12.20;;
21432;SDS011;18592;49.708;10.900;2023-10-19T07:51:16;15.02;;;12.88;;
21432;SDS011;18592;49.708;10.900;2023-10-19T07:53:18;13.38;;;11.98;;
21432;SDS011;18592;49.708;10.900;2023-10-19T07:55:20;15.05;;;11.93;;
21432;SDS011;18592;49.708;10.900;2023-10-19T07:57:25;13.10;;;11.68;;
21432;SDS011;18592;49.708;10.900;2023-10-19T07:59:27;14.07;;;12.57;;
21432;SDS011;18592;49.708;10.900;2023-10-19T08:01:29;14.93;;;12.65;;
21432;SDS011;18592;49.708;10.900;2023-10-19T08:03:31;13.32;;;11.52;;
21432;SDS011;18592;49.708;10.900;2023-10-19T08:05:33;13.43;;;11.65;;
21432;SDS011;18592;49.708;10.900;2023-10-19T08:07:35;13.02;;;11.35;;
21432;SDS011;18592;49.708;10.900;2023-10-19T08:09:38;13.38;;;11.77;;
21432;SDS011;18592;49.708;10.900;2023-10-19T08:11:39;13.32;;;11.65;;
21432;SDS011;18592;49.708;10.900;2023-10-19T08:13:43;13.65;;;11.95;;
21432;SDS011;18592;49.708;10.900;2023-10-19T08:15:45;13.00;;;11.23;;
21432;SDS011;18592;49.708;10.900;2023-10-19T08:17:48;12.93;;;11.45;;
21432;SDS011;18592;49.708;10.900;2023-10-19T08:19:55;14.30;;;11.15;;
21432;SDS011;18592;49.708;10.900;2023-10-19T08:21:58;13.02;;;11.55;;
21432;SDS011;18592;49.708;10.900;2023-10-19T08:24:00;13.60;;;11.38;;
21432;SDS011;18592;49.708;10.900;2023-10-19T08:26:05;17.65;;;12.68;;
21432;SDS011;18592;49.708;10.900;2023-10-19T08:28:07;12.90;;;11.52;;
21432;SDS011;18592;49.708;10.900;2023-10-19T08:30:09;14.25;;;12.15;;
21432;SDS011;18592;49.708;10.900;2023-10-19T08:32:11;16.00;;;12.63;;
21432;SDS011;18592;49.708;10.900;2023-10-19T08:34:13;13.45;;;11.90;;
21432;SDS011;18592;49.708;10.900;2023-10-19T08:36:15;13.73;;;11.20;;
21432;SDS011;18592;49.708;10.900;2023-10-19T08:38:19;12.98;;;11.57;;
21432;SDS011;18592;49.708;10.900;2023-10-19T08:40:21;15.13;;;12.50;;
21432;SDS011;18592;49.708;10.900;2023-10-19T08:42:25;12.48;;;11.05;;
21432;SDS011;18592;49.708;10.900;2023-10-19T08:44:26;12.73;;;10.77;;
21432;SDS011;18592;49.708;10.900;2023-10-19T08:46:28;13.55;;;10.95;;
21432;SDS011;18592;49.708;10.900;2023-10-19T08:48:32;12.93;;;10.68;;
21432;SDS011;18592;49.708;10.900;2023-10-19T08:50:35;12.05;;;10.82;;
21432;SDS011;18592;49.708;10.900;2023-10-19T08:52:38;12.43;;;11.20;;
21432;SDS011;18592;49.708;10.900;2023-10-19T08:54:41;13.13;;;11.70;;
21432;SDS011;18592;49.708;10.900;2023-10-19T08:56:43;12.95;;;11.48;;
21432;SDS011;18592;49.708;10.900;2023-10-19T08:58:45;14.43;;;12.27;;
21432;SDS011;18592;49.708;10.900;2023-10-19T09:00:50;15.38;;;12.52;;
21432;SDS011;18592;49.708;10.900;2023-10-19T09:02:56;13.05;;;11.43;;
21432;SDS011;18592;49.708;10.900;2023-10-19T09:04:58;13.00;;;11.63;;
21432;SDS011;18592;49.708;10.900;2023-10-19T09:07:02;13.15;;;11.35;;
21432;SDS011;18592;49.708;10.900;2023-10-19T09:09:09;14.15;;;10.90;;
21432;SDS011;18592;49.708;10.900;2023-10-19T09:11:26;13.82;;;11.27;;
21432;SDS011;18592;49.708;10.900;2023-10-19T09:13:28;12.48;;;10.50;;
21432;SDS011;18592;49.708;10.900;2023-10-19T09:15:48;12.50;;;10.88;;
21432;SDS011;18592;49.708;10.900;2023-10-19T09:17:58;12.32;;;11.13;;
21432;SDS011;18592;49.708;10.900;2023-10-19T09:20:14;13.55;;;11.10;;
21432;SDS011;18592;49.708;10.900;2023-10-19T09:22:34;16.20;;;13.00;;
21432;SDS011;18592;49.708;10.900;2023-10-19T09:24:38;15.52;;;12.20;;
21432;SDS011;18592;49.708;10.900;2023-10-19T09:26:39;12.15;;;10.90;;
21432;SDS011;18592;49.708;10.900;2023-10-19T09:28:50;13.75;;;11.20;;
21432;SDS011;18592;49.708;10.900;2023-10-19T09:30:52;12.75;;;10.93;;
21432;SDS011;18592;49.708;10.900;2023-10-19T09:32:58;15.32;;;12.48;;
21432;SDS011;18592;49.708;10.900;2023-10-19T09:35:00;13.48;;;11.90;;
21432;SDS011;18592;49.708;10.900;2023-10-19T09:37:08;13.27;;;11.70;;
21432;SDS011;18592;49.708;10.900;2023-10-19T09:39:11;14.05;;;11.93;;
21432;SDS011;18592;49.708;10.900;2023-10-19T09:41:18;14.52;;;12.85;;
21432;SDS011;18592;49.708;10.900;2023-10-19T09:43:22;15.05;;;12.82;;
21432;SDS011;18592;49.708;10.900;2023-10-19T09:45:36;13.30;;;11.90;;
21432;SDS011;18592;49.708;10.900;2023-10-19T09:47:44;13.32;;;11.43;;
21432;SDS011;18592;49.708;10.900;2023-10-19T09:49:52;13.60;;;10.70;;
21432;SDS011;18592;49.708;10.900;2023-10-19T09:51:55;13.75;;;11.80;;
21432;SDS011;18592;49.708;10.900;2023-10-19T09:54:26;15.27;;;12.88;;
21432;SDS011;18592;49.708;10.900;2023-10-19T09:56:43;13.40;;;11.98;;
21432;SDS011;18592;49.708;10.900;2023-10-19T09:58:57;14.38;;;12.18;;
21432;SDS011;18592;49.708;10.900;2023-10-19T10:01:08;15.07;;;11.55;;
21432;SDS011;18592;49.708;10.900;2023-10-19T10:05:44;12.25;;;10.95;;
21432;SDS011;18592;49.708;10.900;2023-10-19T10:07:50;11.27;;;10.02;;
21432;SDS011;18592;49.708;10.900;2023-10-19T10:10:19;14.23;;;11.00;;
21432;SDS011;18592;49.708;10.900;2023-10-19T10:12:21;12.10;;;10.23;;
21432;SDS011;18592;49.708;10.900;2023-10-19T10:14:26;12.05;;;10.85;;
21432;SDS011;18592;49.708;10.900;2023-10-19T10:16:33;12.43;;;11.13;;
21432;SDS011;18592;49.708;10.900;2023-10-19T10:18:36;12.45;;;10.57;;
21432;SDS011;18592;49.708;10.900;2023-10-19T10:20:37;12.23;;;11.02;;
21432;SDS011;18592;49.708;10.900;2023-10-19T10:22:41;12.85;;;10.98;;
21432;SDS011;18592;49.708;10.900;2023-10-19T10:24:43;13.93;;;11.27;;
21432;SDS011;18592;49.708;10.900;2023-10-19T10:26:57;12.82;;;10.80;;
21432;SDS011;18592;49.708;10.900;2023-10-19T10:29:14;11.40;;;10.20;;
21432;SDS011;18592;49.708;10.900;2023-10-19T10:31:23;12.32;;;10.88;;
21432;SDS011;18592;49.708;10.900;2023-10-19T10:33:38;12.73;;;10.55;;
21432;SDS011;18592;49.708;10.900;2023-10-19T10:37:41;12.15;;;9.43;;
21432;SDS011;18592;49.708;10.900;2023-10-19T10:39:58;11.23;;;9.75;;
21432;SDS011;18592;49.708;10.900;2023-10-19T10:42:03;10.50;;;8.90;;
21432;SDS011;18592;49.708;10.900;2023-10-19T10:44:06;10.18;;;9.18;;
21432;SDS011;18592;49.708;10.900;2023-10-19T10:46:10;10.43;;;8.98;;
21432;SDS011;18592;49.708;10.900;2023-10-19T10:48:12;9.50;;;8.50;;
21432;SDS011;18592;49.708;10.900;2023-10-19T10:50:19;9.50;;;8.20;;
21432;SDS011;18592;49.708;10.900;2023-10-19T10:52:35;9.32;;;8.05;;
21432;SDS011;18592;49.708;10.900;2023-10-19T10:54:38;9.65;;;8.65;;
21432;SDS011;18592;49.708;10.900;2023-10-19T10:56:43;8.75;;;7.82;;
21432;SDS011;18592;49.708;10.900;2023-10-19T10:58:45;9.52;;;8.30;;
21432;SDS011;18592;49.708;10.900;2023-10-19T11:00:47;12.13;;;9.30;;
21432;SDS011;18592;49.708;10.900;2023-10-19T11:05:09;9.30;;;7.88;;
21432;SDS011;18592;49.708;10.900;2023-10-19T11:07:19;9.57;;;7.93;;
21432;SDS011;18592;49.708;10.900;2023-10-19T11:09:21;9.23;;;8.02;;
21432;SDS011;18592;49.708;10.900;2023-10-19T11:11:25;8.23;;;7.28;;
21432;SDS011;18592;49.708;10.900;2023-10-19T11:13:27;8.60;;;7.72;;
21432;SDS011;18592;49.708;10.900;2023-10-19T11:15:32;9.23;;;7.68;;
21432;SDS011;18592;49.708;10.900;2023-10-19T11:17:43;8.52;;;7.63;;
21432;SDS011;18592;49.708;10.900;2023-10-19T11:19:47;8.55;;;7.75;;
21432;SDS011;18592;49.708;10.900;2023-10-19T11:21:52;9.50;;;7.97;;
21432;SDS011;18592;49.708;10.900;2023-10-19T11:23:59;9.63;;;7.70;;
21432;SDS011;18592;49.708;10.900;2023-10-19T11:26:00;10.60;;;8.57;;
21432;SDS011;18592;49.708;10.900;2023-10-19T11:28:04;9.35;;;8.45;;
21432;SDS011;18592;49.708;10.900;2023-10-19T11:30:27;9.35;;;7.60;;
21432;SDS011;18592;49.708;10.900;2023-10-19T11:32:36;7.88;;;7.18;;
21432;SDS011;18592;49.708;10.900;2023-10-19T11:34:43;9.55;;;8.55;;
21432;SDS011;18592;49.708;10.900;2023-10-19T11:36:46;8.73;;;7.82;;
21432;SDS011;18592;49.708;10.900;2023-10-19T11:38:49;11.10;;;8.70;;
21432;SDS011;18592;49.708;10.900;2023-10-19T11:40:52;10.25;;;7.20;;
21432;SDS011;18592;49.708;10.900;2023-10-19T11:42:55;7.22;;;6.53;;
21432;SDS011;18592;49.708;10.900;2023-10-19T11:45:02;8.77;;;7.40;;
21432;SDS011;18592;49.708;10.900;2023-10-19T11:47:04;8.00;;;7.22;;
21432;SDS011;18592;49.708;10.900;2023-10-19T11:49:06;9.15;;;8.13;;
21432;SDS011;18592;49.708;10.900;2023-10-19T11:51:08;7.25;;;6.50;;
21432;SDS011;18592;49.708;10.900;2023-10-19T11:53:12;9.25;;;7.80;;
21432;SDS011;18592;49.708;10.900;2023-10-19T11:55:14;10.73;;;7.72;;
21432;SDS011;18592;49.708;10.900;2023-10-19T11:57:16;7.60;;;6.82;;
21432;SDS011;18592;49.708;10.900;2023-10-19T11:59:18;7.68;;;6.85;;
21432;SDS011;18592;49.708;10.900;2023-10-19T12:01:19;8.02;;;7.10;;
21432;SDS011;18592;49.708;10.900;2023-10-19T12:03:21;8.77;;;7.03;;
21432;SDS011;18592;49.708;10.900;2023-10-19T12:05:23;8.35;;;7.30;;
21432;SDS011;18592;49.708;10.900;2023-10-19T12:07:28;9.70;;;7.50;;
21432;SDS011;18592;49.708;10.900;2023-10-19T12:09:29;9.63;;;7.57;;
21432;SDS011;18592;49.708;10.900;2023-10-19T12:11:31;10.23;;;7.95;;